createdAt,value
2024-03-04T00:01:23.617Z,5.58
2024-03-04T00:03:51.687Z,5.36
2024-03-04T00:06:19.630Z,5.15
2024-03-04T00:08:47.477Z,4.87
2024-03-04T00:11:15.663Z,4.72
2024-03-04T00:13:43.912Z,4.62
2024-03-04T00:16:12.052Z,4.49
2024-03-04T00:18:40.072Z,4.33
2024-03-04T00:21:08.520Z,4.26
2024-03-04T00:23:36.369Z,4.17
2024-03-04T00:26:07.805Z,4.11
2024-03-04T00:28:36.136Z,4.11
2024-03-04T00:31:05.157Z,4.16
2024-03-04T00:33:33.185Z,4.21
2024-03-04T00:36:01.214Z,4.19
2024-03-04T00:38:29.174Z,4.25
2024-03-04T00:40:57.185Z,4.25
2024-03-04T00:43:25.432Z,4.28
2024-03-04T00:45:54.402Z,4.31
2024-03-04T00:48:22.471Z,4.35
2024-03-04T00:50:51.624Z,4.40
2024-03-04T00:53:19.629Z,4.40
2024-03-04T00:55:47.740Z,4.46
2024-03-04T00:58:15.803Z,4.45
2024-03-04T01:00:44.684Z,4.42
2024-03-04T01:03:12.565Z,4.41
2024-03-04T01:05:40.669Z,4.41
2024-03-04T01:08:09.585Z,4.36
2024-03-04T01:10:37.538Z,4.36
2024-03-04T01:13:05.726Z,4.31
2024-03-04T01:15:35.268Z,4.26
2024-03-04T01:18:04.379Z,4.19
2024-03-04T01:20:34.665Z,4.17
2024-03-04T01:23:02.790Z,4.12
2024-03-04T01:25:31.303Z,4.12
2024-03-04T01:28:00.479Z,4.14
2024-03-04T01:30:28.863Z,4.14
2024-03-04T01:32:58.458Z,4.15
2024-03-04T01:35:26.553Z,4.12
2024-03-04T01:37:54.640Z,4.08
2024-03-04T01:40:22.693Z,4.02
2024-03-04T01:42:50.693Z,3.94
2024-03-04T01:45:27.035Z,3.88
2024-03-04T01:48:00.302Z,3.85
2024-03-04T01:50:36.807Z,3.78
2024-03-04T01:53:06.869Z,3.71
2024-03-04T01:55:40.140Z,3.61
2024-03-04T01:58:13.854Z,3.54
2024-03-04T02:00:46.135Z,3.44
2024-03-04T02:03:17.453Z,3.35
2024-03-04T02:05:47.019Z,3.23
2024-03-04T02:08:16.528Z,3.16
2024-03-04T02:10:46.259Z,3.09
2024-03-04T02:13:14.531Z,3.08
2024-03-04T02:15:43.236Z,3.07
2024-03-04T02:18:12.050Z,3.01
2024-03-04T02:20:42.731Z,2.96
2024-03-04T02:23:14.062Z,2.92
2024-03-04T02:25:56.384Z,2.95
2024-03-04T02:28:27.519Z,2.91
2024-03-04T02:30:59.926Z,2.91
2024-03-04T02:33:28.166Z,2.86
2024-03-04T02:35:56.115Z,2.79
2024-03-04T02:38:24.398Z,2.72
2024-03-04T02:40:52.435Z,2.67
2024-03-04T02:43:23.491Z,2.67
2024-03-04T02:45:51.540Z,2.66
2024-03-04T02:48:19.701Z,2.71
2024-03-04T02:50:47.536Z,2.76
2024-03-04T02:53:15.420Z,2.79
2024-03-04T02:55:44.427Z,2.75
2024-03-04T02:58:12.450Z,2.76
2024-03-04T03:00:40.416Z,2.67
2024-03-04T03:03:08.564Z,2.61
2024-03-04T03:05:36.545Z,2.52
2024-03-04T03:08:04.542Z,2.42
2024-03-04T03:10:32.625Z,2.38
2024-03-04T03:13:00.686Z,2.33
2024-03-04T03:15:28.646Z,2.28
2024-03-04T03:17:56.760Z,2.27
2024-03-04T03:20:24.721Z,2.26
2024-03-04T03:22:52.656Z,2.21
2024-03-04T03:25:20.680Z,2.13
2024-03-04T03:27:48.501Z,2.18
2024-03-04T03:30:16.602Z,2.15
2024-03-04T03:32:47.490Z,2.13
2024-03-04T03:35:15.508Z,2.11
2024-03-04T03:37:43.474Z,2.13
2024-03-04T03:40:12.068Z,2.09
2024-03-04T03:42:40.167Z,2.13
2024-03-04T03:45:08.878Z,2.14
2024-03-04T03:47:36.846Z,2.16
2024-03-04T03:50:05.424Z,2.05
2024-03-04T03:52:35.984Z,2.16
2024-03-04T03:55:04.330Z,2.13
2024-03-04T03:57:41.622Z,2.09
2024-03-04T04:00:20.169Z,2.01
2024-03-04T04:02:48.083Z,2.00
2024-03-04T04:05:16.293Z,1.97
2024-03-04T04:07:44.232Z,1.89
2024-03-04T04:10:12.138Z,1.83
2024-03-04T04:12:39.987Z,1.84
2024-03-04T04:15:08.750Z,1.78
2024-03-04T04:17:36.703Z,1.71
2024-03-04T04:20:04.913Z,1.67
2024-03-04T04:22:32.834Z,1.64
2024-03-04T04:25:01.044Z,1.58
2024-03-04T04:27:28.919Z,1.50
2024-03-04T04:29:56.858Z,1.42
2024-03-04T04:32:24.897Z,1.38
2024-03-04T04:34:52.810Z,1.36
2024-03-04T04:37:20.946Z,1.30
2024-03-04T04:39:49.258Z,1.23
2024-03-04T04:42:17.598Z,1.18
2024-03-04T04:44:45.519Z,1.10
2024-03-04T04:47:13.461Z,1.07
2024-03-04T04:49:41.622Z,1.02
2024-03-04T04:52:09.722Z,0.92
2024-03-04T04:54:37.632Z,0.94
2024-03-04T04:57:06.290Z,0.92
2024-03-04T04:59:34.171Z,0.92
2024-03-04T05:02:02.162Z,0.85
2024-03-04T05:04:43.956Z,0.85
2024-03-04T05:07:18.010Z,0.82
2024-03-04T05:09:45.902Z,0.80
2024-03-04T05:12:13.799Z,0.75
2024-03-04T05:14:41.691Z,0.73
2024-03-04T05:17:10.086Z,0.71
2024-03-04T05:19:39.568Z,0.69
2024-03-04T05:22:08.944Z,0.71
2024-03-04T05:24:36.871Z,0.72
2024-03-04T05:27:04.896Z,0.77
2024-03-04T05:29:33.122Z,0.79
2024-03-04T05:32:01.402Z,0.83
2024-03-04T05:34:29.712Z,0.85
2024-03-04T05:36:57.700Z,0.87
2024-03-04T05:39:25.828Z,0.89
2024-03-04T05:41:53.888Z,0.88
2024-03-04T05:44:22.255Z,0.87
2024-03-04T05:46:50.239Z,0.87
2024-03-04T05:49:18.214Z,0.84
2024-03-04T05:51:49.228Z,0.80
2024-03-04T05:54:17.112Z,0.75
2024-03-04T05:56:45.921Z,0.70
2024-03-04T05:59:14.136Z,0.76
2024-03-04T06:01:42.234Z,0.70
2024-03-04T06:04:11.204Z,0.69
2024-03-04T06:06:39.450Z,0.59
2024-03-04T06:09:10.080Z,0.57
2024-03-04T06:11:38.197Z,0.53
2024-03-04T06:14:06.131Z,0.50
2024-03-04T06:16:34.133Z,0.52
2024-03-04T06:19:02.023Z,0.50
2024-03-04T06:21:30.033Z,0.47
2024-03-04T06:23:57.855Z,0.43
2024-03-04T06:26:25.729Z,0.37
2024-03-04T06:28:53.685Z,0.32
2024-03-04T06:31:21.521Z,0.28
2024-03-04T06:33:53.699Z,0.21
2024-03-04T06:36:23.006Z,0.13
2024-03-04T06:38:53.846Z,0.09
2024-03-04T06:41:21.803Z,0.01
2024-03-04T06:43:49.782Z,0.01
2024-03-04T06:46:17.683Z,-0.06
2024-03-04T06:48:45.749Z,-0.10
2024-03-04T06:51:13.729Z,-0.17
2024-03-04T06:53:41.619Z,-0.20
2024-03-04T06:56:11.094Z,-0.24
2024-03-04T06:58:39.103Z,-0.29
2024-03-04T07:01:07.607Z,-0.34
2024-03-04T07:03:35.591Z,-0.37
2024-03-04T07:06:03.544Z,-0.41
2024-03-04T07:08:33.623Z,-0.44
2024-03-04T07:11:01.861Z,-0.52
2024-03-04T07:13:29.829Z,-0.57
2024-03-04T07:15:58.759Z,-0.64
2024-03-04T07:18:32.984Z,-0.71
2024-03-04T07:21:03.060Z,-0.93
2024-03-04T07:23:31.351Z,-0.76
2024-03-04T07:25:59.310Z,-0.77
2024-03-04T07:28:27.185Z,-0.81
2024-03-04T07:30:55.247Z,-0.91
2024-03-04T07:33:23.253Z,-0.87
2024-03-04T07:35:51.093Z,-0.95
2024-03-04T07:38:18.967Z,-0.94
2024-03-04T07:40:46.990Z,-1.03
2024-03-04T07:43:14.924Z,-1.04
2024-03-04T07:45:42.940Z,-1.10
2024-03-04T07:48:10.832Z,-1.14
2024-03-04T07:50:38.830Z,-1.19
2024-03-04T07:53:06.752Z,-1.24
2024-03-04T07:55:34.771Z,-1.28
2024-03-04T07:58:02.654Z,-1.33
2024-03-04T08:00:30.558Z,-1.36
2024-03-04T08:02:58.522Z,-1.40
2024-03-04T08:05:26.525Z,-1.42
2024-03-04T08:07:54.660Z,-1.47
2024-03-04T08:10:22.613Z,-1.48
2024-03-04T08:12:50.500Z,-1.50
2024-03-04T08:15:18.441Z,-1.55
2024-03-04T08:17:54.708Z,-1.58
2024-03-04T08:20:32.977Z,-1.56
2024-03-04T08:23:05.923Z,-1.58
2024-03-04T08:25:34.046Z,-1.60
2024-03-04T08:28:02.363Z,-1.60
2024-03-04T08:30:30.317Z,-1.62
2024-03-04T08:32:58.364Z,-1.68
2024-03-04T08:35:26.205Z,-1.66
2024-03-04T08:37:54.325Z,-1.67
2024-03-04T08:40:22.516Z,-1.68
2024-03-04T08:42:50.590Z,-1.73
2024-03-04T08:45:19.666Z,-1.72
2024-03-04T08:47:47.529Z,-1.75
2024-03-04T08:50:15.610Z,-1.76
2024-03-04T08:52:43.656Z,-1.78
2024-03-04T08:55:11.703Z,-1.79
2024-03-04T08:57:39.609Z,-1.80
2024-03-04T09:00:09.062Z,-1.84
2024-03-04T09:02:36.909Z,-1.84
2024-03-04T09:05:08.025Z,-1.84
2024-03-04T09:07:37.852Z,-1.87
2024-03-04T09:10:06.331Z,-1.95
2024-03-04T09:12:34.164Z,-1.90
2024-03-04T09:15:02.086Z,-1.92
2024-03-04T09:17:29.960Z,-1.94
2024-03-04T09:19:59.833Z,-1.96
2024-03-04T09:22:28.313Z,-2.02
2024-03-04T09:24:56.259Z,-2.10
2024-03-04T09:27:24.112Z,-2.03
2024-03-04T09:29:52.009Z,-2.03
2024-03-04T09:32:19.893Z,-2.15
2024-03-04T09:34:47.730Z,-2.10
2024-03-04T09:37:15.653Z,-2.16
2024-03-04T09:39:44.245Z,-2.19
2024-03-04T09:42:12.528Z,-2.22
2024-03-04T09:44:42.032Z,-2.24
2024-03-04T09:47:10.596Z,-2.28
2024-03-04T09:49:41.917Z,-2.29
2024-03-04T09:52:10.946Z,-2.29
2024-03-04T09:54:40.503Z,-2.31
2024-03-04T09:57:09.272Z,-2.33
2024-03-04T09:59:37.540Z,-2.35
2024-03-04T10:02:07.393Z,-2.38
2024-03-04T10:04:35.984Z,-2.39
2024-03-04T10:07:04.665Z,-2.42
2024-03-04T10:09:32.880Z,-2.42
2024-03-04T10:12:04.436Z,-2.44
2024-03-04T10:14:32.931Z,-2.48
2024-03-04T10:17:00.954Z,-2.50
2024-03-04T10:19:28.873Z,-2.53
2024-03-04T10:21:57.284Z,-2.55
2024-03-04T10:24:25.088Z,-2.57
2024-03-04T10:26:53.059Z,-2.61
2024-03-04T10:29:24.491Z,-2.62
2024-03-04T10:31:56.311Z,-2.67
2024-03-04T10:34:24.232Z,-2.70
2024-03-04T10:36:58.976Z,-2.76
2024-03-04T10:39:31.446Z,-2.80
2024-03-04T10:41:59.487Z,-2.84
2024-03-04T10:44:30.315Z,-2.89
2024-03-04T10:47:02.647Z,-2.88
2024-03-04T10:49:33.078Z,-2.88
2024-03-04T10:52:08.628Z,-2.93
2024-03-04T10:54:43.117Z,-2.94
2024-03-04T10:57:29.189Z,-2.97
2024-03-04T11:00:26.927Z,-3.07
2024-03-04T11:03:04.329Z,-3.00
2024-03-04T11:05:34.642Z,-2.99
2024-03-04T11:08:18.046Z,-3.00
2024-03-04T11:11:00.340Z,-3.01
2024-03-04T11:13:59.367Z,-3.01
2024-03-04T11:16:27.227Z,-3.02
2024-03-04T11:19:13.643Z,-3.05
2024-03-04T11:21:42.738Z,-3.06
2024-03-04T11:24:12.079Z,-3.05
2024-03-04T11:26:42.276Z,-3.03
2024-03-04T11:29:12.449Z,-3.04
2024-03-04T11:31:41.620Z,-3.00
2024-03-04T11:34:14.840Z,-2.99
2024-03-04T11:36:43.121Z,-2.98
2024-03-04T11:39:26.310Z,-2.95
2024-03-04T11:41:54.904Z,-2.94
2024-03-04T11:44:30.959Z,-2.92
2024-03-04T11:46:59.170Z,-2.91
2024-03-04T11:49:34.789Z,-2.89
2024-03-04T11:52:22.090Z,-2.90
2024-03-04T11:54:51.140Z,-2.88
2024-03-04T11:57:19.588Z,-2.87
2024-03-04T12:00:15.413Z,-2.87
2024-03-04T12:02:44.609Z,-2.83
2024-03-04T12:05:12.481Z,-2.81
2024-03-04T12:07:40.617Z,-2.75
2024-03-04T12:10:16.482Z,-2.72
2024-03-04T12:12:46.070Z,-2.69
2024-03-04T12:15:14.006Z,-2.62
2024-03-04T12:17:42.121Z,-2.65
2024-03-04T12:20:10.946Z,-2.63
2024-03-04T12:22:40.297Z,-2.58
2024-03-04T12:25:13.120Z,-2.56
2024-03-04T12:27:44.506Z,-2.53
2024-03-04T12:30:16.322Z,-2.48
2024-03-04T12:32:47.777Z,-2.44
2024-03-04T12:35:29.378Z,-2.44
2024-03-04T12:37:59.133Z,-2.35
2024-03-04T12:40:28.602Z,-2.33
2024-03-04T12:43:00.169Z,-2.33
2024-03-04T12:45:28.737Z,-2.26
2024-03-04T12:48:00.818Z,-2.29
2024-03-04T12:50:31.133Z,-2.23
2024-03-04T12:53:00.542Z,-2.18
2024-03-04T12:55:29.261Z,-2.21
2024-03-04T12:58:00.501Z,-2.23
2024-03-04T13:00:29.228Z,-2.25
2024-03-04T13:02:57.236Z,-2.25
2024-03-04T13:05:25.177Z,-2.14
2024-03-04T13:07:53.176Z,-2.05
2024-03-04T13:10:21.056Z,-2.22
2024-03-04T13:12:49.688Z,-2.16
2024-03-04T13:15:18.074Z,-2.15
2024-03-04T13:17:46.662Z,-2.09
2024-03-04T13:20:17.863Z,-2.07
2024-03-04T13:22:48.489Z,-2.09
2024-03-04T13:25:20.188Z,-2.04
2024-03-04T13:27:48.887Z,-2.08
2024-03-04T13:30:17.026Z,-2.18
2024-03-04T13:32:48.964Z,-2.14
2024-03-04T13:35:17.063Z,-2.10
2024-03-04T13:37:45.272Z,-2.16
2024-03-04T13:40:14.674Z,-2.03
2024-03-04T13:42:45.260Z,-2.16
2024-03-04T13:45:15.934Z,-2.00
2024-03-04T13:47:46.103Z,-2.00
2024-03-04T13:50:16.747Z,-1.88
2024-03-04T13:52:44.713Z,-1.73
2024-03-04T13:55:12.658Z,-1.67
2024-03-04T13:57:43.602Z,-1.58
2024-03-04T14:00:16.177Z,-1.55
2024-03-04T14:02:44.474Z,-1.42
2024-03-04T14:05:16.170Z,-1.30
2024-03-04T14:07:45.575Z,-1.23
2024-03-04T14:10:13.945Z,-1.21
2024-03-04T14:12:41.985Z,-1.27
2024-03-04T14:15:10.734Z,-1.24
2024-03-04T14:17:40.023Z,-1.26
2024-03-04T14:20:09.358Z,-1.15
2024-03-04T14:22:37.384Z,-1.17
2024-03-04T14:25:05.905Z,-1.21
2024-03-04T14:27:33.807Z,-1.32
2024-03-04T14:30:01.868Z,-1.34
2024-03-04T14:32:32.010Z,-1.14
2024-03-04T14:35:00.074Z,-1.12
2024-03-04T14:37:28.066Z,-1.17
2024-03-04T14:39:58.311Z,-1.14
2024-03-04T14:42:26.604Z,-1.11
2024-03-04T14:44:55.919Z,-0.99
2024-03-04T14:47:24.142Z,-0.98
2024-03-04T14:49:52.096Z,-0.94
2024-03-04T14:52:20.071Z,-1.01
2024-03-04T14:54:48.476Z,-0.83
2024-03-04T14:57:16.390Z,-0.61
2024-03-04T14:59:44.400Z,-0.59
2024-03-04T15:02:12.273Z,-0.64
2024-03-04T15:04:40.611Z,-0.65
2024-03-04T15:07:08.717Z,-0.57
2024-03-04T15:09:37.351Z,-0.66
2024-03-04T15:12:08.073Z,-0.73
2024-03-04T15:14:36.861Z,-0.56
2024-03-04T15:17:07.750Z,-0.57
2024-03-04T15:19:39.622Z,-0.51
2024-03-04T15:22:08.817Z,-0.45
2024-03-04T15:24:37.234Z,-0.32
2024-03-04T15:27:06.205Z,-0.24
2024-03-04T15:29:34.168Z,-0.25
2024-03-04T15:32:03.910Z,-0.28
2024-03-04T15:34:32.054Z,-0.43
2024-03-04T15:37:00.141Z,-0.30
2024-03-04T15:39:28.224Z,-0.42
2024-03-04T15:41:56.185Z,-0.36
2024-03-04T15:44:25.370Z,-0.33
2024-03-04T15:46:54.030Z,-0.31
2024-03-04T15:49:22.338Z,-0.31
2024-03-04T15:51:50.274Z,-0.20
2024-03-04T15:54:18.178Z,-0.07
2024-03-04T15:56:46.140Z,-0.08
2024-03-04T15:59:15.083Z,-0.15
2024-03-04T16:01:44.898Z,-0.06
2024-03-04T16:04:12.960Z,-0.09
2024-03-04T16:06:41.132Z,0.05
2024-03-04T16:09:10.165Z,0.10
2024-03-04T16:11:40.245Z,0.20
2024-03-04T16:14:08.126Z,0.20
2024-03-04T16:16:36.054Z,0.11
2024-03-04T16:19:04.386Z,0.04
2024-03-04T16:21:34.284Z,-0.04
2024-03-04T16:24:02.739Z,0.02
2024-03-04T16:26:32.429Z,-0.02
2024-03-04T16:29:01.511Z,0.05
2024-03-04T16:31:31.558Z,0.18
2024-03-04T16:34:01.496Z,0.19
2024-03-04T16:36:29.375Z,0.41
2024-03-04T16:38:57.344Z,0.50
2024-03-04T16:41:25.376Z,0.48
2024-03-04T16:43:53.497Z,0.58
2024-03-04T16:46:22.614Z,0.45
2024-03-04T16:48:50.480Z,0.59
2024-03-04T16:51:18.374Z,0.61
2024-03-04T16:53:46.428Z,0.73
2024-03-04T16:56:14.498Z,0.85
2024-03-04T16:58:42.561Z,0.85
2024-03-04T17:01:11.942Z,0.86
2024-03-04T17:03:42.010Z,1.00
2024-03-04T17:06:09.949Z,0.98
2024-03-04T17:08:38.056Z,1.08
2024-03-04T17:11:06.605Z,1.05
2024-03-04T17:13:34.683Z,1.00
2024-03-04T17:16:02.724Z,0.86
2024-03-04T17:18:30.634Z,0.88
2024-03-04T17:20:58.452Z,1.18
2024-03-04T17:23:27.231Z,1.48
2024-03-04T17:25:55.289Z,1.62
2024-03-04T17:28:23.214Z,1.47
2024-03-04T17:30:51.134Z,1.41
2024-03-04T17:33:21.770Z,1.45
2024-03-04T17:35:49.639Z,1.48
2024-03-04T17:38:18.214Z,1.63
2024-03-04T17:40:46.283Z,1.72
2024-03-04T17:43:14.233Z,1.68
2024-03-04T17:45:42.210Z,1.90
2024-03-04T17:48:10.235Z,1.65
2024-03-04T17:50:38.231Z,1.71
2024-03-04T17:53:06.341Z,1.81
2024-03-04T17:55:34.903Z,1.74
2024-03-04T17:58:02.946Z,1.82
2024-03-04T18:00:31.378Z,2.10
2024-03-04T18:02:59.405Z,2.30
2024-03-04T18:05:27.439Z,2.36
2024-03-04T18:07:55.407Z,2.36
2024-03-04T18:10:23.573Z,2.26
2024-03-04T18:12:51.601Z,2.37
2024-03-04T18:15:19.469Z,2.45
2024-03-04T18:17:50.686Z,2.32
2024-03-04T18:20:18.605Z,2.31
2024-03-04T18:22:46.482Z,2.35
2024-03-04T18:25:14.566Z,2.58
2024-03-04T18:27:42.459Z,2.98
2024-03-04T18:30:12.725Z,3.04
2024-03-04T18:32:40.695Z,2.76
2024-03-04T18:35:09.337Z,2.62
2024-03-04T18:37:37.432Z,2.62
2024-03-04T18:40:08.516Z,2.46
2024-03-04T18:42:36.510Z,2.37
2024-03-04T18:45:04.639Z,2.50
2024-03-04T18:47:32.769Z,2.40
2024-03-04T18:50:01.490Z,2.49
2024-03-04T18:52:30.562Z,2.45
2024-03-04T18:54:59.014Z,2.42
2024-03-04T18:57:26.891Z,2.30
2024-03-04T18:59:54.882Z,2.33
2024-03-04T19:02:27.372Z,2.21
2024-03-04T19:04:56.031Z,2.19
2024-03-04T19:07:24.002Z,2.17
2024-03-04T19:09:51.951Z,2.07
2024-03-04T19:12:20.085Z,2.27
2024-03-04T19:14:50.818Z,2.21
2024-03-04T19:17:18.702Z,2.18
2024-03-04T19:19:46.598Z,2.16
2024-03-04T19:22:14.517Z,2.09
2024-03-04T19:24:42.997Z,1.79
2024-03-04T19:27:10.831Z,1.44
2024-03-04T19:29:38.684Z,1.30
2024-03-04T19:32:07.211Z,1.10
2024-03-04T19:34:35.214Z,1.00
2024-03-04T19:37:03.789Z,1.10
2024-03-04T19:39:31.700Z,1.24
2024-03-04T19:42:01.812Z,1.24
2024-03-04T19:44:31.116Z,1.05
2024-03-04T19:46:59.056Z,0.84
2024-03-04T19:49:27.104Z,0.62
2024-03-04T19:51:55.096Z,0.59
2024-03-04T19:54:23.204Z,0.49
2024-03-04T19:56:51.195Z,0.45
2024-03-04T19:59:19.242Z,0.44
2024-03-04T20:01:47.202Z,0.44
2024-03-04T20:04:15.319Z,0.39
2024-03-04T20:06:44.449Z,0.45
2024-03-04T20:09:15.962Z,0.38
2024-03-04T20:11:44.025Z,0.38
2024-03-04T20:14:14.416Z,0.15
2024-03-04T20:16:44.350Z,0.11
2024-03-04T20:19:12.552Z,0.03
2024-03-04T20:21:40.482Z,0.14
2024-03-04T20:24:08.477Z,0.29
2024-03-04T20:26:36.961Z,0.31
2024-03-04T20:29:04.851Z,0.24
2024-03-04T20:31:32.809Z,0.18
2024-03-04T20:34:00.679Z,0.24
2024-03-04T20:36:28.687Z,0.12
2024-03-04T20:38:56.811Z,0.03
2024-03-04T20:41:24.812Z,-0.03
2024-03-04T20:43:53.031Z,-0.19
2024-03-04T20:46:21.676Z,-0.19
2024-03-04T20:48:50.230Z,-0.21
2024-03-04T20:51:18.181Z,-0.26
2024-03-04T20:53:46.140Z,-0.38
2024-03-04T20:56:13.981Z,-0.43
2024-03-04T20:58:41.966Z,-0.59
2024-03-04T21:01:10.061Z,-0.58
2024-03-04T21:03:37.960Z,-0.60
2024-03-04T21:06:09.158Z,-0.69
2024-03-04T21:08:37.119Z,-0.67
2024-03-04T21:11:05.579Z,-0.84
2024-03-04T21:13:33.579Z,-0.96
2024-03-04T21:16:01.723Z,-1.12
2024-03-04T21:18:29.686Z,-1.23
2024-03-04T21:20:57.658Z,-1.27
2024-03-04T21:23:25.702Z,-1.32
2024-03-04T21:25:53.644Z,-1.38
2024-03-04T21:28:21.578Z,-1.50
2024-03-04T21:30:49.574Z,-1.63
2024-03-04T21:33:17.499Z,-1.73
2024-03-04T21:35:45.455Z,-1.84
2024-03-04T21:38:13.412Z,-1.96
2024-03-04T21:40:41.462Z,-2.02
2024-03-04T21:43:09.711Z,-2.12
2024-03-04T21:45:37.832Z,-2.18
2024-03-04T21:48:06.584Z,-2.25
2024-03-04T21:50:34.658Z,-2.34
2024-03-04T21:53:02.896Z,-2.45
2024-03-04T21:55:32.287Z,-2.58
2024-03-04T21:58:00.230Z,-2.62
2024-03-04T22:00:30.850Z,-2.71
2024-03-04T22:02:58.754Z,-2.75
2024-03-04T22:05:26.694Z,-2.82
2024-03-04T22:07:54.684Z,-2.91
2024-03-04T22:10:24.302Z,-2.96
2024-03-04T22:12:52.375Z,-3.02
2024-03-04T22:15:20.439Z,-3.06
2024-03-04T22:17:48.305Z,-3.14
2024-03-04T22:20:17.559Z,-3.20
2024-03-04T22:22:45.566Z,-3.21
2024-03-04T22:25:15.814Z,-3.25
2024-03-04T22:27:44.267Z,-3.29
2024-03-04T22:30:12.988Z,-3.35
2024-03-04T22:32:41.069Z,-3.42
2024-03-04T22:35:09.731Z,-3.49
2024-03-04T22:37:38.330Z,-3.53
2024-03-04T22:40:10.089Z,-3.55
2024-03-04T22:42:38.339Z,-3.61
2024-03-04T22:45:06.530Z,-3.65
2024-03-04T22:47:34.546Z,-3.69
2024-03-04T22:50:02.835Z,-3.75
2024-03-04T22:52:30.973Z,-3.80
2024-03-04T22:54:58.833Z,-3.84
2024-03-04T22:57:26.821Z,-3.89
2024-03-04T22:59:54.901Z,-3.92
2024-03-04T23:02:25.285Z,-3.99
2024-03-04T23:04:54.034Z,-4.02
2024-03-04T23:07:22.146Z,-4.04
2024-03-04T23:09:50.029Z,-4.10
2024-03-04T23:12:18.155Z,-4.12
2024-03-04T23:14:46.494Z,-4.16
2024-03-04T23:17:14.854Z,-4.15
2024-03-04T23:19:43.248Z,-4.18
2024-03-04T23:22:11.767Z,-4.21
2024-03-04T23:24:39.706Z,-4.21
2024-03-04T23:27:07.710Z,-4.23
2024-03-04T23:29:35.641Z,-4.22
2024-03-04T23:32:03.579Z,-4.24
2024-03-04T23:34:32.879Z,-4.24
2024-03-04T23:37:02.128Z,-4.24
2024-03-04T23:39:31.190Z,-4.26
2024-03-04T23:42:00.697Z,-4.27
2024-03-04T23:44:28.784Z,-4.34
2024-03-04T23:46:57.012Z,-4.36
2024-03-04T23:49:25.796Z,-4.36
2024-03-04T23:51:57.396Z,-4.37
2024-03-04T23:54:25.752Z,-4.40
2024-03-04T23:56:53.622Z,-4.40
2024-03-04T23:59:21.502Z,-4.43
